sensor_id;sensor_type;location;lat;lon;timestamp;P1;durP1;ratioP1;P2;durP2;ratioP2
8337;SDS011;4206;48.634;9.516;2022-10-17T00:01:13;1.40;;;1.30;;
8337;SDS011;4206;48.634;9.516;2022-10-17T00:03:39;2.77;;;1.17;;
8337;SDS011;4206;48.634;9.516;2022-10-17T00:06:06;4.27;;;1.20;;
8337;SDS011;4206;48.634;9.516;2022-10-17T00:08:33;1.87;;;1.37;;
8337;SDS011;4206;48.634;9.516;2022-10-17T00:11:04;3.80;;;1.40;;
8337;SDS011;4206;48.634;9.516;2022-10-17T00:13:32;7.33;;;1.20;;
8337;SDS011;4206;48.634;9.516;2022-10-17T00:15:59;3.03;;;1.57;;
8337;SDS011;4206;48.634;9.516;2022-10-17T00:18:24;2.67;;;1.10;;
8337;SDS011;4206;48.634;9.516;2022-10-17T00:20:50;3.23;;;1.30;;
8337;SDS011;4206;48.634;9.516;2022-10-17T00:23:16;8.93;;;1.50;;
8337;SDS011;4206;48.634;9.516;2022-10-17T00:25:42;7.10;;;1.60;;
8337;SDS011;4206;48.634;9.516;2022-10-17T00:28:11;3.07;;;1.40;;
8337;SDS011;4206;48.634;9.516;2022-10-17T00:30:38;10.40;;;1.40;;
8337;SDS011;4206;48.634;9.516;2022-10-17T00:33:03;2.30;;;1.20;;
8337;SDS011;4206;48.634;9.516;2022-10-17T00:35:30;1.40;;;1.13;;
8337;SDS011;4206;48.634;9.516;2022-10-17T00:37:55;2.57;;;1.20;;
8337;SDS011;4206;48.634;9.516;2022-10-17T00:40:21;3.83;;;1.30;;
8337;SDS011;4206;48.634;9.516;2022-10-17T00:42:47;2.80;;;1.37;;
8337;SDS011;4206;48.634;9.516;2022-10-17T00:45:18;1.70;;;1.20;;
8337;SDS011;4206;48.634;9.516;2022-10-17T00:47:52;5.87;;;1.37;;
8337;SDS011;4206;48.634;9.516;2022-10-17T00:50:22;2.70;;;1.23;;
8337;SDS011;4206;48.634;9.516;2022-10-17T00:52:49;2.97;;;1.50;;
8337;SDS011;4206;48.634;9.516;2022-10-17T00:55:19;3.30;;;1.20;;
8337;SDS011;4206;48.634;9.516;2022-10-17T00:57:47;2.53;;;1.20;;
8337;SDS011;4206;48.634;9.516;2022-10-17T01:00:14;3.17;;;1.20;;
8337;SDS011;4206;48.634;9.516;2022-10-17T01:02:42;2.90;;;1.47;;
8337;SDS011;4206;48.634;9.516;2022-10-17T01:05:08;1.90;;;1.47;;
8337;SDS011;4206;48.634;9.516;2022-10-17T01:07:36;8.00;;;1.20;;
8337;SDS011;4206;48.634;9.516;2022-10-17T01:10:02;4.70;;;1.40;;
8337;SDS011;4206;48.634;9.516;2022-10-17T01:12:34;5.03;;;1.50;;
8337;SDS011;4206;48.634;9.516;2022-10-17T01:31:21;3.47;;;1.40;;
8337;SDS011;4206;48.634;9.516;2022-10-17T01:39:16;2.03;;;1.33;;
8337;SDS011;4206;48.634;9.516;2022-10-17T01:42:02;2.27;;;1.10;;
8337;SDS011;4206;48.634;9.516;2022-10-17T01:44:34;3.73;;;1.40;;
8337;SDS011;4206;48.634;9.516;2022-10-17T01:47:04;1.87;;;1.47;;
8337;SDS011;4206;48.634;9.516;2022-10-17T01:49:33;1.43;;;1.03;;
8337;SDS011;4206;48.634;9.516;2022-10-17T01:52:05;3.80;;;1.27;;
8337;SDS011;4206;48.634;9.516;2022-10-17T01:54:41;1.93;;;1.20;;
8337;SDS011;4206;48.634;9.516;2022-10-17T01:57:11;2.60;;;1.40;;
8337;SDS011;4206;48.634;9.516;2022-10-17T01:59:45;3.47;;;1.20;;
8337;SDS011;4206;48.634;9.516;2022-10-17T02:02:13;2.37;;;1.20;;
8337;SDS011;4206;48.634;9.516;2022-10-17T02:04:41;3.90;;;1.43;;
8337;SDS011;4206;48.634;9.516;2022-10-17T02:07:08;3.90;;;1.60;;
8337;SDS011;4206;48.634;9.516;2022-10-17T02:09:35;5.23;;;1.40;;
8337;SDS011;4206;48.634;9.516;2022-10-17T02:14:31;3.63;;;1.40;;
8337;SDS011;4206;48.634;9.516;2022-10-17T02:17:13;9.67;;;1.47;;
8337;SDS011;4206;48.634;9.516;2022-10-17T02:28:06;3.70;;;1.20;;
8337;SDS011;4206;48.634;9.516;2022-10-17T02:33:29;4.03;;;1.43;;
8337;SDS011;4206;48.634;9.516;2022-10-17T02:36:04;6.07;;;1.57;;
8337;SDS011;4206;48.634;9.516;2022-10-17T02:38:34;3.27;;;1.10;;
8337;SDS011;4206;48.634;9.516;2022-10-17T02:41:01;2.00;;;1.40;;
8337;SDS011;4206;48.634;9.516;2022-10-17T02:43:29;4.83;;;1.10;;
8337;SDS011;4206;48.634;9.516;2022-10-17T02:45:55;4.20;;;1.37;;
8337;SDS011;4206;48.634;9.516;2022-10-17T02:51:03;4.43;;;1.20;;
8337;SDS011;4206;48.634;9.516;2022-10-17T02:53:33;6.70;;;2.10;;
8337;SDS011;4206;48.634;9.516;2022-10-17T02:56:07;1.40;;;1.30;;
8337;SDS011;4206;48.634;9.516;2022-10-17T02:58:41;4.10;;;1.50;;
8337;SDS011;4206;48.634;9.516;2022-10-17T03:01:08;1.77;;;1.13;;
8337;SDS011;4206;48.634;9.516;2022-10-17T03:03:34;2.40;;;1.00;;
8337;SDS011;4206;48.634;9.516;2022-10-17T03:05:59;2.23;;;1.30;;
8337;SDS011;4206;48.634;9.516;2022-10-17T03:08:25;3.03;;;1.60;;
8337;SDS011;4206;48.634;9.516;2022-10-17T03:10:50;6.10;;;1.77;;
8337;SDS011;4206;48.634;9.516;2022-10-17T03:13:16;6.23;;;1.70;;
8337;SDS011;4206;48.634;9.516;2022-10-17T03:15:42;2.67;;;1.37;;
8337;SDS011;4206;48.634;9.516;2022-10-17T03:18:08;3.33;;;1.27;;
8337;SDS011;4206;48.634;9.516;2022-10-17T03:20:34;2.30;;;1.37;;
8337;SDS011;4206;48.634;9.516;2022-10-17T03:23:00;7.80;;;1.37;;
8337;SDS011;4206;48.634;9.516;2022-10-17T03:25:26;4.40;;;1.30;;
8337;SDS011;4206;48.634;9.516;2022-10-17T03:27:52;4.20;;;1.23;;
8337;SDS011;4206;48.634;9.516;2022-10-17T03:30:18;4.30;;;1.40;;
8337;SDS011;4206;48.634;9.516;2022-10-17T03:32:43;6.43;;;1.63;;
8337;SDS011;4206;48.634;9.516;2022-10-17T03:35:09;4.00;;;1.63;;
8337;SDS011;4206;48.634;9.516;2022-10-17T03:37:35;3.50;;;1.90;;
8337;SDS011;4206;48.634;9.516;2022-10-17T03:40:01;3.47;;;1.67;;
8337;SDS011;4206;48.634;9.516;2022-10-17T03:42:26;3.90;;;1.37;;
8337;SDS011;4206;48.634;9.516;2022-10-17T03:44:52;3.97;;;1.27;;
8337;SDS011;4206;48.634;9.516;2022-10-17T03:47:17;3.53;;;1.60;;
8337;SDS011;4206;48.634;9.516;2022-10-17T03:49:43;2.40;;;1.60;;
8337;SDS011;4206;48.634;9.516;2022-10-17T03:52:10;4.10;;;1.83;;
8337;SDS011;4206;48.634;9.516;2022-10-17T03:54:37;2.50;;;1.57;;
8337;SDS011;4206;48.634;9.516;2022-10-17T03:57:02;3.00;;;1.47;;
8337;SDS011;4206;48.634;9.516;2022-10-17T03:59:28;8.23;;;2.00;;
8337;SDS011;4206;48.634;9.516;2022-10-17T04:01:54;2.60;;;1.53;;
8337;SDS011;4206;48.634;9.516;2022-10-17T04:04:20;3.40;;;1.87;;
8337;SDS011;4206;48.634;9.516;2022-10-17T04:06:45;9.13;;;1.80;;
8337;SDS011;4206;48.634;9.516;2022-10-17T04:09:11;3.73;;;1.50;;
8337;SDS011;4206;48.634;9.516;2022-10-17T04:11:37;3.63;;;1.90;;
8337;SDS011;4206;48.634;9.516;2022-10-17T04:14:02;2.60;;;1.97;;
8337;SDS011;4206;48.634;9.516;2022-10-17T04:16:28;3.67;;;2.00;;
8337;SDS011;4206;48.634;9.516;2022-10-17T04:18:55;5.43;;;2.07;;
8337;SDS011;4206;48.634;9.516;2022-10-17T04:21:22;4.20;;;1.80;;
8337;SDS011;4206;48.634;9.516;2022-10-17T04:23:57;4.77;;;1.97;;
8337;SDS011;4206;48.634;9.516;2022-10-17T04:26:24;3.90;;;1.87;;
8337;SDS011;4206;48.634;9.516;2022-10-17T04:28:51;6.40;;;2.00;;
8337;SDS011;4206;48.634;9.516;2022-10-17T04:31:17;4.20;;;1.97;;
8337;SDS011;4206;48.634;9.516;2022-10-17T04:33:45;4.83;;;2.10;;
8337;SDS011;4206;48.634;9.516;2022-10-17T04:36:12;2.20;;;1.83;;
8337;SDS011;4206;48.634;9.516;2022-10-17T04:38:39;3.70;;;1.63;;
8337;SDS011;4206;48.634;9.516;2022-10-17T04:41:06;4.40;;;2.50;;
8337;SDS011;4206;48.634;9.516;2022-10-17T04:43:35;2.03;;;1.83;;
8337;SDS011;4206;48.634;9.516;2022-10-17T04:46:03;3.53;;;1.83;;
8337;SDS011;4206;48.634;9.516;2022-10-17T04:48:30;2.80;;;1.70;;
8337;SDS011;4206;48.634;9.516;2022-10-17T04:50:57;3.20;;;2.00;;
8337;SDS011;4206;48.634;9.516;2022-10-17T04:53:25;2.73;;;2.27;;
8337;SDS011;4206;48.634;9.516;2022-10-17T04:55:52;2.40;;;1.80;;
8337;SDS011;4206;48.634;9.516;2022-10-17T04:58:18;2.17;;;1.80;;
8337;SDS011;4206;48.634;9.516;2022-10-17T05:00:45;3.87;;;1.70;;
8337;SDS011;4206;48.634;9.516;2022-10-17T05:03:11;3.37;;;1.60;;
8337;SDS011;4206;48.634;9.516;2022-10-17T05:05:37;4.33;;;1.97;;
8337;SDS011;4206;48.634;9.516;2022-10-17T05:08:03;2.63;;;1.87;;
8337;SDS011;4206;48.634;9.516;2022-10-17T05:10:30;4.67;;;1.90;;
8337;SDS011;4206;48.634;9.516;2022-10-17T05:13:00;5.13;;;2.00;;
8337;SDS011;4206;48.634;9.516;2022-10-17T05:15:25;3.27;;;1.77;;
8337;SDS011;4206;48.634;9.516;2022-10-17T05:17:53;3.03;;;2.00;;
8337;SDS011;4206;48.634;9.516;2022-10-17T05:20:20;5.60;;;2.20;;
8337;SDS011;4206;48.634;9.516;2022-10-17T05:22:46;7.30;;;2.80;;
8337;SDS011;4206;48.634;9.516;2022-10-17T05:25:11;5.10;;;2.10;;
8337;SDS011;4206;48.634;9.516;2022-10-17T05:27:37;4.67;;;2.60;;
8337;SDS011;4206;48.634;9.516;2022-10-17T05:30:03;4.50;;;2.37;;
8337;SDS011;4206;48.634;9.516;2022-10-17T05:32:29;6.40;;;1.80;;
8337;SDS011;4206;48.634;9.516;2022-10-17T05:34:54;7.03;;;2.90;;
8337;SDS011;4206;48.634;9.516;2022-10-17T05:37:20;3.73;;;2.27;;
8337;SDS011;4206;48.634;9.516;2022-10-17T05:39:46;6.90;;;2.47;;
8337;SDS011;4206;48.634;9.516;2022-10-17T05:42:11;6.30;;;3.23;;
8337;SDS011;4206;48.634;9.516;2022-10-17T05:44:37;8.67;;;2.63;;
8337;SDS011;4206;48.634;9.516;2022-10-17T05:47:03;29.40;;;4.40;;
8337;SDS011;4206;48.634;9.516;2022-10-17T05:49:29;15.57;;;3.33;;
8337;SDS011;4206;48.634;9.516;2022-10-17T05:51:55;12.03;;;3.10;;
8337;SDS011;4206;48.634;9.516;2022-10-17T05:54:20;13.33;;;4.10;;
8337;SDS011;4206;48.634;9.516;2022-10-17T05:56:50;6.43;;;2.27;;
8337;SDS011;4206;48.634;9.516;2022-10-17T05:59:16;21.20;;;4.10;;
8337;SDS011;4206;48.634;9.516;2022-10-17T06:01:42;26.10;;;4.67;;
8337;SDS011;4206;48.634;9.516;2022-10-17T06:04:08;39.50;;;4.90;;
8337;SDS011;4206;48.634;9.516;2022-10-17T06:06:35;22.63;;;4.00;;
8337;SDS011;4206;48.634;9.516;2022-10-17T06:09:02;12.90;;;3.87;;
8337;SDS011;4206;48.634;9.516;2022-10-17T06:11:27;5.07;;;3.27;;
8337;SDS011;4206;48.634;9.516;2022-10-17T06:13:53;8.53;;;3.90;;
8337;SDS011;4206;48.634;9.516;2022-10-17T06:16:19;10.87;;;3.30;;
8337;SDS011;4206;48.634;9.516;2022-10-17T06:18:45;28.20;;;5.13;;
8337;SDS011;4206;48.634;9.516;2022-10-17T06:21:11;6.10;;;3.23;;
8337;SDS011;4206;48.634;9.516;2022-10-17T06:23:41;3.87;;;2.57;;
8337;SDS011;4206;48.634;9.516;2022-10-17T06:26:07;5.10;;;2.57;;
8337;SDS011;4206;48.634;9.516;2022-10-17T06:28:33;3.87;;;2.27;;
8337;SDS011;4206;48.634;9.516;2022-10-17T06:31:03;12.60;;;2.80;;
8337;SDS011;4206;48.634;9.516;2022-10-17T06:33:30;10.43;;;3.10;;
8337;SDS011;4206;48.634;9.516;2022-10-17T06:35:56;12.73;;;2.50;;
8337;SDS011;4206;48.634;9.516;2022-10-17T06:38:22;11.33;;;3.07;;
8337;SDS011;4206;48.634;9.516;2022-10-17T06:40:47;10.07;;;5.60;;
8337;SDS011;4206;48.634;9.516;2022-10-17T06:43:13;14.00;;;4.40;;
8337;SDS011;4206;48.634;9.516;2022-10-17T06:45:39;11.67;;;5.20;;
8337;SDS011;4206;48.634;9.516;2022-10-17T06:48:05;11.90;;;4.63;;
8337;SDS011;4206;48.634;9.516;2022-10-17T06:50:31;13.57;;;4.53;;
8337;SDS011;4206;48.634;9.516;2022-10-17T06:52:57;13.07;;;3.80;;
8337;SDS011;4206;48.634;9.516;2022-10-17T06:55:22;7.63;;;3.80;;
8337;SDS011;4206;48.634;9.516;2022-10-17T06:57:48;8.70;;;3.40;;
8337;SDS011;4206;48.634;9.516;2022-10-17T07:00:15;5.70;;;2.60;;
8337;SDS011;4206;48.634;9.516;2022-10-17T07:02:41;23.87;;;12.63;;
8337;SDS011;4206;48.634;9.516;2022-10-17T07:05:07;15.13;;;7.67;;
8337;SDS011;4206;48.634;9.516;2022-10-17T07:07:34;15.80;;;10.30;;
8337;SDS011;4206;48.634;9.516;2022-10-17T07:09:59;6.20;;;3.70;;
8337;SDS011;4206;48.634;9.516;2022-10-17T07:12:25;10.83;;;3.50;;
8337;SDS011;4206;48.634;9.516;2022-10-17T07:14:51;11.23;;;3.10;;
8337;SDS011;4206;48.634;9.516;2022-10-17T07:17:16;24.10;;;4.20;;
8337;SDS011;4206;48.634;9.516;2022-10-17T07:19:43;12.43;;;3.43;;
8337;SDS011;4206;48.634;9.516;2022-10-17T07:22:09;8.80;;;3.33;;
8337;SDS011;4206;48.634;9.516;2022-10-17T07:24:35;8.93;;;4.20;;
8337;SDS011;4206;48.634;9.516;2022-10-17T07:27:00;4.47;;;3.50;;
8337;SDS011;4206;48.634;9.516;2022-10-17T07:29:26;8.53;;;5.67;;
8337;SDS011;4206;48.634;9.516;2022-10-17T07:31:52;8.37;;;4.70;;
8337;SDS011;4206;48.634;9.516;2022-10-17T07:34:18;5.43;;;3.23;;
8337;SDS011;4206;48.634;9.516;2022-10-17T07:36:44;9.73;;;3.90;;
8337;SDS011;4206;48.634;9.516;2022-10-17T07:39:10;8.87;;;3.53;;
8337;SDS011;4206;48.634;9.516;2022-10-17T07:41:36;4.27;;;3.17;;
8337;SDS011;4206;48.634;9.516;2022-10-17T07:44:02;5.97;;;3.70;;
8337;SDS011;4206;48.634;9.516;2022-10-17T07:46:27;8.93;;;4.03;;
8337;SDS011;4206;48.634;9.516;2022-10-17T07:48:53;7.17;;;2.57;;
8337;SDS011;4206;48.634;9.516;2022-10-17T07:51:18;9.60;;;3.90;;
8337;SDS011;4206;48.634;9.516;2022-10-17T07:53:45;4.20;;;3.20;;
8337;SDS011;4206;48.634;9.516;2022-10-17T07:56:12;5.33;;;2.37;;
8337;SDS011;4206;48.634;9.516;2022-10-17T07:58:37;6.87;;;3.07;;
8337;SDS011;4206;48.634;9.516;2022-10-17T08:01:04;7.90;;;2.70;;
8337;SDS011;4206;48.634;9.516;2022-10-17T08:03:32;8.40;;;2.27;;
8337;SDS011;4206;48.634;9.516;2022-10-17T08:05:59;6.83;;;2.33;;
8337;SDS011;4206;48.634;9.516;2022-10-17T08:08:25;7.67;;;2.60;;
8337;SDS011;4206;48.634;9.516;2022-10-17T08:10:51;3.27;;;1.80;;
8337;SDS011;4206;48.634;9.516;2022-10-17T08:13:19;3.90;;;1.90;;
8337;SDS011;4206;48.634;9.516;2022-10-17T08:15:45;3.57;;;2.30;;
8337;SDS011;4206;48.634;9.516;2022-10-17T08:18:12;7.40;;;2.57;;
8337;SDS011;4206;48.634;9.516;2022-10-17T08:20:39;4.53;;;2.20;;
8337;SDS011;4206;48.634;9.516;2022-10-17T08:23:05;8.90;;;2.30;;
8337;SDS011;4206;48.634;9.516;2022-10-17T08:25:31;4.10;;;2.27;;
8337;SDS011;4206;48.634;9.516;2022-10-17T08:27:57;3.70;;;2.10;;
8337;SDS011;4206;48.634;9.516;2022-10-17T08:30:23;6.70;;;2.50;;
8337;SDS011;4206;48.634;9.516;2022-10-17T08:32:48;5.10;;;2.67;;
8337;SDS011;4206;48.634;9.516;2022-10-17T08:35:14;11.07;;;2.60;;
8337;SDS011;4206;48.634;9.516;2022-10-17T08:37:40;9.73;;;3.37;;
8337;SDS011;4206;48.634;9.516;2022-10-17T08:40:06;6.27;;;3.20;;
8337;SDS011;4206;48.634;9.516;2022-10-17T08:47:48;9.60;;;3.10;;
8337;SDS011;4206;48.634;9.516;2022-10-17T08:52:48;9.63;;;2.70;;
8337;SDS011;4206;48.634;9.516;2022-10-17T08:57:46;5.87;;;2.13;;
8337;SDS011;4206;48.634;9.516;2022-10-17T09:00:16;7.73;;;2.50;;
8337;SDS011;4206;48.634;9.516;2022-10-17T09:13:33;7.23;;;2.10;;
8337;SDS011;4206;48.634;9.516;2022-10-17T09:19:07;2.97;;;1.57;;
8337;SDS011;4206;48.634;9.516;2022-10-17T09:21:41;3.30;;;1.43;;
8337;SDS011;4206;48.634;9.516;2022-10-17T09:24:16;8.40;;;1.93;;
8337;SDS011;4206;48.634;9.516;2022-10-17T09:26:46;3.73;;;1.53;;
8337;SDS011;4206;48.634;9.516;2022-10-17T09:29:15;6.17;;;1.90;;
8337;SDS011;4206;48.634;9.516;2022-10-17T09:31:48;5.07;;;2.03;;
8337;SDS011;4206;48.634;9.516;2022-10-17T09:34:31;4.13;;;1.70;;
8337;SDS011;4206;48.634;9.516;2022-10-17T09:36:57;7.10;;;2.03;;
8337;SDS011;4206;48.634;9.516;2022-10-17T09:39:24;1.80;;;1.50;;
8337;SDS011;4206;48.634;9.516;2022-10-17T09:41:52;4.87;;;1.87;;
8337;SDS011;4206;48.634;9.516;2022-10-17T09:47:12;3.77;;;2.37;;
8337;SDS011;4206;48.634;9.516;2022-10-17T09:49:54;10.20;;;2.70;;
8337;SDS011;4206;48.634;9.516;2022-10-17T09:52:24;4.93;;;1.87;;
8337;SDS011;4206;48.634;9.516;2022-10-17T09:54:51;5.13;;;2.43;;
8337;SDS011;4206;48.634;9.516;2022-10-17T09:57:21;4.53;;;2.00;;
8337;SDS011;4206;48.634;9.516;2022-10-17T10:02:30;10.13;;;2.50;;
8337;SDS011;4206;48.634;9.516;2022-10-17T10:07:29;6.50;;;2.53;;
8337;SDS011;4206;48.634;9.516;2022-10-17T10:09:57;4.23;;;1.63;;
8337;SDS011;4206;48.634;9.516;2022-10-17T10:12:25;6.57;;;2.27;;
8337;SDS011;4206;48.634;9.516;2022-10-17T10:14:54;10.60;;;2.13;;
8337;SDS011;4206;48.634;9.516;2022-10-17T10:17:26;9.90;;;2.30;;
8337;SDS011;4206;48.634;9.516;2022-10-17T10:19:58;8.67;;;2.20;;
8337;SDS011;4206;48.634;9.516;2022-10-17T10:22:25;7.13;;;2.10;;
8337;SDS011;4206;48.634;9.516;2022-10-17T10:27:51;4.50;;;1.67;;
8337;SDS011;4206;48.634;9.516;2022-10-17T10:30:18;3.53;;;1.70;;
8337;SDS011;4206;48.634;9.516;2022-10-17T10:32:49;4.37;;;1.70;;
8337;SDS011;4206;48.634;9.516;2022-10-17T10:35:32;8.27;;;2.30;;
8337;SDS011;4206;48.634;9.516;2022-10-17T10:38:00;8.80;;;1.83;;
8337;SDS011;4206;48.634;9.516;2022-10-17T10:40:34;6.10;;;1.63;;
8337;SDS011;4206;48.634;9.516;2022-10-17T10:43:02;3.40;;;1.80;;
8337;SDS011;4206;48.634;9.516;2022-10-17T10:48:05;7.03;;;1.87;;
8337;SDS011;4206;48.634;9.516;2022-10-17T10:53:28;8.00;;;1.57;;
8337;SDS011;4206;48.634;9.516;2022-10-17T11:06:27;5.60;;;1.53;;
8337;SDS011;4206;48.634;9.516;2022-10-17T11:09:04;4.80;;;1.23;;
8337;SDS011;4206;48.634;9.516;2022-10-17T11:11:34;4.20;;;1.33;;
8337;SDS011;4206;48.634;9.516;2022-10-17T11:14:07;9.73;;;1.50;;
8337;SDS011;4206;48.634;9.516;2022-10-17T11:16:56;2.20;;;1.30;;
8337;SDS011;4206;48.634;9.516;2022-10-17T11:19:33;4.17;;;1.53;;
8337;SDS011;4206;48.634;9.516;2022-10-17T11:22:01;1.47;;;1.10;;
8337;SDS011;4206;48.634;9.516;2022-10-17T11:24:42;3.27;;;1.50;;
8337;SDS011;4206;48.634;9.516;2022-10-17T11:27:25;6.40;;;1.50;;
8337;SDS011;4206;48.634;9.516;2022-10-17T11:29:53;5.63;;;1.77;;
8337;SDS011;4206;48.634;9.516;2022-10-17T11:35:06;3.07;;;1.70;;
8337;SDS011;4206;48.634;9.516;2022-10-17T11:37:40;7.83;;;1.13;;
8337;SDS011;4206;48.634;9.516;2022-10-17T11:40:14;1.95;;;1.42;;
8337;SDS011;4206;48.634;9.516;2022-10-17T11:42:51;5.73;;;2.10;;
8337;SDS011;4206;48.634;9.516;2022-10-17T11:45:18;2.85;;;1.55;;
8337;SDS011;4206;48.634;9.516;2022-10-17T11:47:50;3.40;;;1.52;;
8337;SDS011;4206;48.634;9.516;2022-10-17T11:53:07;7.03;;;1.55;;
8337;SDS011;4206;48.634;9.516;2022-10-17T11:55:37;5.03;;;1.30;;
8337;SDS011;4206;48.634;9.516;2022-10-17T12:11:59;5.35;;;1.55;;
8337;SDS011;4206;48.634;9.516;2022-10-17T12:22:45;5.18;;;1.70;;
8337;SDS011;4206;48.634;9.516;2022-10-17T12:25:17;3.10;;;1.70;;
8337;SDS011;4206;48.634;9.516;2022-10-17T12:27:43;2.53;;;1.67;;
8337;SDS011;4206;48.634;9.516;2022-10-17T12:35:22;2.97;;;1.38;;
8337;SDS011;4206;48.634;9.516;2022-10-17T12:43:00;2.58;;;1.50;;
8337;SDS011;4206;48.634;9.516;2022-10-17T12:48:09;3.53;;;1.45;;
8337;SDS011;4206;48.634;9.516;2022-10-17T12:53:24;2.22;;;1.20;;
8337;SDS011;4206;48.634;9.516;2022-10-17T12:56:00;4.97;;;1.08;;
8337;SDS011;4206;48.634;9.516;2022-10-17T12:58:26;4.75;;;2.00;;
8337;SDS011;4206;48.634;9.516;2022-10-17T13:00:53;7.18;;;2.33;;
8337;SDS011;4206;48.634;9.516;2022-10-17T13:03:23;6.80;;;2.83;;
8337;SDS011;4206;48.634;9.516;2022-10-17T13:05:53;2.05;;;1.23;;
8337;SDS011;4206;48.634;9.516;2022-10-17T13:10:50;4.78;;;1.88;;
8337;SDS011;4206;48.634;9.516;2022-10-17T13:13:19;4.95;;;1.50;;
8337;SDS011;4206;48.634;9.516;2022-10-17T13:15:50;3.95;;;2.10;;
8337;SDS011;4206;48.634;9.516;2022-10-17T13:18:20;6.03;;;1.20;;
8337;SDS011;4206;48.634;9.516;2022-10-17T13:20:54;5.47;;;1.50;;
8337;SDS011;4206;48.634;9.516;2022-10-17T13:23:21;4.10;;;1.30;;
8337;SDS011;4206;48.634;9.516;2022-10-17T13:26:00;2.40;;;1.38;;
8337;SDS011;4206;48.634;9.516;2022-10-17T13:28:28;2.25;;;1.00;;
8337;SDS011;4206;48.634;9.516;2022-10-17T13:30:54;1.38;;;0.95;;
8337;SDS011;4206;48.634;9.516;2022-10-17T13:33:28;1.08;;;0.85;;
8337;SDS011;4206;48.634;9.516;2022-10-17T13:35:55;7.05;;;1.15;;
8337;SDS011;4206;48.634;9.516;2022-10-17T13:38:23;2.70;;;1.10;;
8337;SDS011;4206;48.634;9.516;2022-10-17T13:40:52;4.38;;;1.02;;
8337;SDS011;4206;48.634;9.516;2022-10-17T13:43:19;5.43;;;1.10;;
8337;SDS011;4206;48.634;9.516;2022-10-17T13:45:49;3.35;;;1.00;;
8337;SDS011;4206;48.634;9.516;2022-10-17T13:48:18;2.95;;;0.90;;
8337;SDS011;4206;48.634;9.516;2022-10-17T13:50:48;2.95;;;1.05;;
8337;SDS011;4206;48.634;9.516;2022-10-17T13:55:59;2.35;;;1.08;;
8337;SDS011;4206;48.634;9.516;2022-10-17T13:58:25;2.67;;;0.73;;
8337;SDS011;4206;48.634;9.516;2022-10-17T14:01:10;3.20;;;0.73;;
8337;SDS011;4206;48.634;9.516;2022-10-17T14:03:37;1.50;;;0.95;;
8337;SDS011;4206;48.634;9.516;2022-10-17T14:06:11;2.45;;;0.85;;
8337;SDS011;4206;48.634;9.516;2022-10-17T14:14:02;2.30;;;1.08;;
8337;SDS011;4206;48.634;9.516;2022-10-17T14:16:34;5.38;;;1.48;;
8337;SDS011;4206;48.634;9.516;2022-10-17T14:19:04;3.03;;;1.00;;
8337;SDS011;4206;48.634;9.516;2022-10-17T14:21:37;1.40;;;0.82;;
8337;SDS011;4206;48.634;9.516;2022-10-17T14:26:45;4.50;;;1.15;;
8337;SDS011;4206;48.634;9.516;2022-10-17T14:29:21;5.80;;;1.02;;
8337;SDS011;4206;48.634;9.516;2022-10-17T14:31:49;5.30;;;1.63;;
8337;SDS011;4206;48.634;9.516;2022-10-17T14:34:26;4.28;;;1.40;;
8337;SDS011;4206;48.634;9.516;2022-10-17T14:36:56;3.15;;;1.58;;
8337;SDS011;4206;48.634;9.516;2022-10-17T14:39:22;1.98;;;1.15;;
8337;SDS011;4206;48.634;9.516;2022-10-17T14:41:49;3.33;;;1.05;;
8337;SDS011;4206;48.634;9.516;2022-10-17T14:46:43;2.13;;;1.00;;
8337;SDS011;4206;48.634;9.516;2022-10-17T14:54:49;4.50;;;1.05;;
8337;SDS011;4206;48.634;9.516;2022-10-17T14:57:16;7.93;;;1.10;;
8337;SDS011;4206;48.634;9.516;2022-10-17T14:59:42;3.70;;;1.05;;
8337;SDS011;4206;48.634;9.516;2022-10-17T15:02:08;2.70;;;0.75;;
8337;SDS011;4206;48.634;9.516;2022-10-17T15:04:35;2.23;;;1.07;;
8337;SDS011;4206;48.634;9.516;2022-10-17T15:07:01;2.17;;;1.10;;
8337;SDS011;4206;48.634;9.516;2022-10-17T15:09:26;3.03;;;1.20;;
8337;SDS011;4206;48.634;9.516;2022-10-17T15:11:54;2.77;;;1.20;;
8337;SDS011;4206;48.634;9.516;2022-10-17T15:14:20;6.00;;;1.53;;
8337;SDS011;4206;48.634;9.516;2022-10-17T15:16:46;1.87;;;1.13;;
8337;SDS011;4206;48.634;9.516;2022-10-17T15:19:13;4.37;;;1.43;;
8337;SDS011;4206;48.634;9.516;2022-10-17T15:21:38;4.67;;;1.50;;
8337;SDS011;4206;48.634;9.516;2022-10-17T15:24:05;9.33;;;1.50;;
8337;SDS011;4206;48.634;9.516;2022-10-17T15:26:31;4.77;;;1.40;;
8337;SDS011;4206;48.634;9.516;2022-10-17T15:28:58;2.90;;;1.30;;
8337;SDS011;4206;48.634;9.516;2022-10-17T15:31:24;1.70;;;1.43;;
8337;SDS011;4206;48.634;9.516;2022-10-17T15:33:51;7.90;;;1.80;;
8337;SDS011;4206;48.634;9.516;2022-10-17T15:36:18;4.30;;;1.73;;
8337;SDS011;4206;48.634;9.516;2022-10-17T15:38:53;4.03;;;1.60;;
8337;SDS011;4206;48.634;9.516;2022-10-17T15:41:21;4.87;;;1.80;;
8337;SDS011;4206;48.634;9.516;2022-10-17T15:43:49;7.93;;;1.83;;
8337;SDS011;4206;48.634;9.516;2022-10-17T15:46:16;5.27;;;1.80;;
8337;SDS011;4206;48.634;9.516;2022-10-17T15:48:45;3.60;;;1.77;;
8337;SDS011;4206;48.634;9.516;2022-10-17T15:51:11;10.10;;;1.67;;
8337;SDS011;4206;48.634;9.516;2022-10-17T15:53:37;3.97;;;1.60;;
8337;SDS011;4206;48.634;9.516;2022-10-17T15:56:03;5.63;;;1.90;;
8337;SDS011;4206;48.634;9.516;2022-10-17T15:58:33;7.30;;;1.80;;
8337;SDS011;4206;48.634;9.516;2022-10-17T16:01:02;6.23;;;1.97;;
8337;SDS011;4206;48.634;9.516;2022-10-17T16:03:29;7.20;;;1.77;;
8337;SDS011;4206;48.634;9.516;2022-10-17T16:05:55;4.07;;;1.63;;
8337;SDS011;4206;48.634;9.516;2022-10-17T16:08:21;4.93;;;1.93;;
8337;SDS011;4206;48.634;9.516;2022-10-17T16:10:47;4.53;;;2.40;;
8337;SDS011;4206;48.634;9.516;2022-10-17T16:13:15;8.20;;;2.10;;
8337;SDS011;4206;48.634;9.516;2022-10-17T16:15:43;3.60;;;2.30;;
8337;SDS011;4206;48.634;9.516;2022-10-17T16:18:09;6.00;;;2.17;;
8337;SDS011;4206;48.634;9.516;2022-10-17T16:20:35;6.80;;;2.00;;
8337;SDS011;4206;48.634;9.516;2022-10-17T16:23:03;6.80;;;2.07;;
8337;SDS011;4206;48.634;9.516;2022-10-17T16:25:31;5.03;;;1.80;;
8337;SDS011;4206;48.634;9.516;2022-10-17T16:27:57;5.30;;;1.83;;
8337;SDS011;4206;48.634;9.516;2022-10-17T16:30:25;11.50;;;2.40;;
8337;SDS011;4206;48.634;9.516;2022-10-17T16:32:52;3.10;;;1.90;;
8337;SDS011;4206;48.634;9.516;2022-10-17T16:35:20;4.13;;;2.23;;
8337;SDS011;4206;48.634;9.516;2022-10-17T16:37:47;2.10;;;1.67;;
8337;SDS011;4206;48.634;9.516;2022-10-17T16:40:13;4.37;;;1.93;;
8337;SDS011;4206;48.634;9.516;2022-10-17T16:42:39;7.80;;;2.27;;
8337;SDS011;4206;48.634;9.516;2022-10-17T16:45:05;5.30;;;2.10;;
8337;SDS011;4206;48.634;9.516;2022-10-17T16:47:31;6.80;;;2.40;;
8337;SDS011;4206;48.634;9.516;2022-10-17T16:49:57;6.30;;;2.63;;
8337;SDS011;4206;48.634;9.516;2022-10-17T16:52:22;10.40;;;2.87;;
8337;SDS011;4206;48.634;9.516;2022-10-17T16:54:48;6.90;;;3.40;;
8337;SDS011;4206;48.634;9.516;2022-10-17T16:57:14;6.50;;;3.00;;
8337;SDS011;4206;48.634;9.516;2022-10-17T16:59:40;9.63;;;2.77;;
8337;SDS011;4206;48.634;9.516;2022-10-17T17:02:06;12.97;;;2.53;;
8337;SDS011;4206;48.634;9.516;2022-10-17T17:04:33;8.53;;;2.43;;
8337;SDS011;4206;48.634;9.516;2022-10-17T17:06:59;5.20;;;2.30;;
8337;SDS011;4206;48.634;9.516;2022-10-17T17:09:24;6.43;;;2.33;;
8337;SDS011;4206;48.634;9.516;2022-10-17T17:11:50;9.67;;;2.40;;
8337;SDS011;4206;48.634;9.516;2022-10-17T17:14:16;9.23;;;2.17;;
8337;SDS011;4206;48.634;9.516;2022-10-17T17:16:41;12.87;;;2.73;;
8337;SDS011;4206;48.634;9.516;2022-10-17T17:19:09;4.77;;;1.90;;
8337;SDS011;4206;48.634;9.516;2022-10-17T17:21:36;5.10;;;1.87;;
8337;SDS011;4206;48.634;9.516;2022-10-17T17:24:02;9.00;;;2.03;;
8337;SDS011;4206;48.634;9.516;2022-10-17T17:26:29;5.50;;;2.57;;
8337;SDS011;4206;48.634;9.516;2022-10-17T17:28:58;9.57;;;3.00;;
8337;SDS011;4206;48.634;9.516;2022-10-17T17:31:25;7.80;;;2.40;;
8337;SDS011;4206;48.634;9.516;2022-10-17T17:33:53;13.67;;;2.37;;
8337;SDS011;4206;48.634;9.516;2022-10-17T17:36:21;5.63;;;2.20;;
8337;SDS011;4206;48.634;9.516;2022-10-17T17:38:48;9.43;;;3.13;;
8337;SDS011;4206;48.634;9.516;2022-10-17T17:41:15;14.37;;;2.90;;
8337;SDS011;4206;48.634;9.516;2022-10-17T17:43:42;11.43;;;3.07;;
8337;SDS011;4206;48.634;9.516;2022-10-17T17:46:09;10.90;;;2.70;;
8337;SDS011;4206;48.634;9.516;2022-10-17T17:48:36;9.47;;;2.60;;
8337;SDS011;4206;48.634;9.516;2022-10-17T17:51:03;7.10;;;2.73;;
8337;SDS011;4206;48.634;9.516;2022-10-17T17:53:30;9.53;;;2.90;;